Time;durP1;ratioP1;P1;durP2;ratioP2;P2;SDS_P1;SDS_P2;PMS_P1;PMS_P2;Temp;Humidity;BMP_temperature;BMP_pressure;BME280_temperature;BME280_humidity;BME280_pressure;Samples;Min_cycle;Max_cycle;Signal;HPM_P1;HPM_P2
2022/11/04 00:01:52;;;;;;;52.13;25.35;;;;;;;3.64;84.50;101016.52;1716671;83;21590;-89
2022/11/04 00:04:21;;;;;;;39.50;23.22;;;;;;;3.67;84.54;101011.08;1716548;83;21209;-89
2022/11/04 00:06:48;;;;;;;37.58;21.55;;;;;;;3.67;84.35;101008.48;1716414;83;21113;-89
2022/11/04 00:09:25;;;;;;;33.28;21.85;;;;;;;3.66;84.20;101009.30;1716312;83;21740;-89
2022/11/04 00:14:37;;;;;;;35.05;20.40;;;;;;;3.63;84.05;101003.91;1716701;83;21074;-88
2022/11/04 00:17:18;;;;;;;36.60;21.40;;;;;;;3.63;84.02;101000.01;1707490;84;21167;-88
2022/11/04 00:33:49;;;;;;;30.37;18.57;;;;;;;3.61;83.87;100995.12;1705456;84;21084;-87
2022/11/04 00:36:16;;;;;;;35.80;19.15;;;;;;;3.60;83.82;100980.72;1708431;82;21786;-87
2022/11/04 00:38:43;;;;;;;29.85;19.27;;;;;;;3.58;83.79;100984.94;1735727;82;21601;-88
2022/11/04 00:41:25;;;;;;;36.68;20.15;;;;;;;3.57;83.83;100985.35;1722889;82;21040;-88
2022/11/04 00:43:55;;;;;;;37.35;16.97;;;;;;;3.58;83.96;100986.24;1705736;84;21052;-85
2022/11/04 00:46:21;;;;;;;29.92;17.45;;;;;;;3.60;84.35;100978.11;1705553;82;21021;-88
2022/11/04 00:48:48;;;;;;;29.20;17.45;;;;;;;3.65;84.54;100977.56;1706214;82;21736;-88
2022/11/04 00:51:15;;;;;;;36.38;18.60;;;;;;;3.69;84.65;100973.02;1705786;82;21021;-88
2022/11/04 00:53:42;;;;;;;33.78;17.80;;;;;;;3.74;84.70;100973.29;1704772;82;21065;-90
2022/11/04 00:56:09;;;;;;;33.42;18.25;;;;;;;3.78;84.69;100971.75;1704636;84;21340;-89
2022/11/04 00:58:35;;;;;;;35.68;18.70;;;;;;;3.82;84.74;100973.30;1688268;84;21095;-89
2022/11/04 01:01:10;;;;;;;30.12;17.90;;;;;;;3.85;84.77;100964.37;1704627;84;22595;-89
2022/11/04 01:03:37;;;;;;;30.37;19.32;;;;;;;3.86;84.75;100954.42;1704763;84;21056;-89
2022/11/04 01:06:05;;;;;;;29.82;18.45;;;;;;;3.93;84.78;100946.97;1704645;84;21051;-89
2022/11/04 01:08:31;;;;;;;30.70;19.55;;;;;;;4.00;84.85;100941.29;1704766;83;21067;-89
2022/11/04 01:11:03;;;;;;;32.20;19.87;;;;;;;4.08;84.85;100937.38;1704619;84;21100;-89
2022/11/04 01:13:30;;;;;;;30.77;19.52;;;;;;;4.14;84.92;100932.48;1704793;84;21771;-87
2022/11/04 01:16:05;;;;;;;34.43;18.87;;;;;;;4.24;85.14;100924.75;1701893;82;21066;-87
2022/11/04 01:18:32;;;;;;;31.10;17.80;;;;;;;4.37;85.30;100922.39;1695440;84;21072;-87
2022/11/04 01:21:04;;;;;;;32.48;16.48;;;;;;;4.55;85.49;100918.56;1695196;84;21058;-88
2022/11/04 01:23:32;;;;;;;31.73;17.40;;;;;;;4.66;85.51;100910.47;1727722;81;21544;-86
2022/11/04 01:26:02;;;;;;;26.70;16.35;;;;;;;4.79;85.31;100909.81;1741675;82;21816;-86
2022/11/04 01:28:29;;;;;;;30.90;17.95;;;;;;;4.88;85.27;100910.28;1745505;82;21038;-86
2022/11/04 01:30:56;;;;;;;36.38;17.32;;;;;;;4.97;85.23;100912.43;1745378;80;21049;-86
2022/11/04 01:33:23;;;;;;;29.57;16.82;;;;;;;5.06;85.07;100907.67;1745089;81;21038;-86
2022/11/04 01:35:50;;;;;;;30.57;17.87;;;;;;;5.11;84.93;100904.00;1745503;82;21613;-86
2022/11/04 01:38:17;;;;;;;27.30;16.77;;;;;;;5.16;84.79;100899.50;1745480;82;22596;-86
2022/11/04 01:40:44;;;;;;;32.30;16.23;;;;;;;5.19;84.60;100895.71;1745055;82;21061;-86
2022/11/04 01:43:17;;;;;;;27.17;16.05;;;;;;;5.22;84.55;100888.47;1745557;81;21045;-88
2022/11/04 01:45:46;;;;;;;28.53;16.10;;;;;;;5.24;84.41;100887.70;1745264;81;21193;-88
2022/11/04 01:48:21;;;;;;;32.53;16.75;;;;;;;5.24;84.37;100890.31;1744994;82;22022;-88
2022/11/04 01:50:48;;;;;;;30.57;15.85;;;;;;;5.30;84.32;100887.11;1745304;82;21744;-89
2022/11/04 01:53:18;;;;;;;29.07;16.40;;;;;;;5.35;84.33;100886.93;1745190;81;21076;-86
2022/11/04 01:55:50;;;;;;;31.20;15.53;;;;;;;5.37;84.15;100881.37;1743007;81;21033;-87
2022/11/04 01:58:18;;;;;;;27.48;15.23;;;;;;;5.35;83.82;100871.66;1745291;82;21150;-86
2022/11/04 02:00:44;;;;;;;21.60;14.70;;;;;;;5.31;83.71;100874.56;1745442;82;21076;-86
2022/11/04 02:03:24;;;;;;;24.55;15.53;;;;;;;5.28;83.73;100863.95;1699260;82;21753;-86
2022/11/04 02:05:51;;;;;;;29.10;15.00;;;;;;;5.25;83.71;100858.19;1714309;83;21071;-86
2022/11/04 02:08:17;;;;;;;23.70;14.30;;;;;;;5.24;83.73;100865.94;1714177;83;21059;-86
2022/11/04 02:10:55;;;;;;;27.58;14.15;;;;;;;5.21;83.76;100855.34;1714218;83;21370;-85
2022/11/04 02:13:22;;;;;;;25.70;14.78;;;;;;;5.20;83.77;100854.45;1714289;83;21162;-86
2022/11/04 02:15:57;;;;;;;24.15;14.50;;;;;;;5.19;83.71;100843.52;1714207;83;21699;-86
2022/11/04 02:18:46;;;;;;;25.75;14.93;;;;;;;5.22;83.78;100838.88;1706526;83;21099;-88
2022/11/04 02:21:50;;;;;;;23.35;14.65;;;;;;;5.26;83.91;100835.17;1702412;82;21584;-89
2022/11/04 02:24:43;;;;;;;26.60;13.65;;;;;;;5.29;83.83;100823.08;1690053;84;21104;-89
2022/11/04 02:27:24;;;;;;;23.65;13.20;;;;;;;5.32;83.82;100826.73;1658097;84;21081;-88
2022/11/04 02:30:06;;;;;;;22.22;13.18;;;;;;;5.37;83.95;100822.64;1691780;84;22177;-89
2022/11/04 02:32:57;;;;;;;28.20;14.18;;;;;;;5.43;84.05;100815.50;1691957;84;21061;-89
2022/11/04 02:35:38;;;;;;;26.23;13.58;;;;;;;5.52;84.12;100808.10;1691978;84;21519;-89
2022/11/04 02:38:38;;;;;;;20.68;13.10;;;;;;;5.63;84.21;100803.34;1692153;84;21077;-88
2022/11/04 02:41:34;;;;;;;20.70;13.40;;;;;;;5.75;84.31;100806.95;1692087;83;21041;-88
2022/11/04 02:44:21;;;;;;;20.85;12.75;;;;;;;5.83;84.07;100794.70;1692148;83;21870;-89
2022/11/04 02:46:59;;;;;;;24.55;13.58;;;;;;;5.90;84.09;100795.00;1691552;83;21109;-88
2022/11/04 02:49:53;;;;;;;19.77;13.50;;;;;;;6.00;84.20;100794.17;1691845;84;21069;-88
2022/11/04 02:52:54;;;;;;;28.45;13.58;;;;;;;6.09;84.09;100792.39;1691623;83;21109;-87
2022/11/04 02:55:31;;;;;;;25.08;14.58;;;;;;;6.13;83.85;100789.08;1690976;83;21574;-87
2022/11/04 02:57:59;;;;;;;25.05;13.48;;;;;;;6.19;83.81;100790.67;1691075;83;22577;-87
2022/11/04 03:00:25;;;;;;;21.48;13.20;;;;;;;6.26;83.92;100790.50;1691319;83;21062;-87
2022/11/04 03:03:12;;;;;;;22.93;13.30;;;;;;;6.30;83.79;100776.73;1691047;84;21077;-84
2022/11/04 03:05:41;;;;;;;22.05;12.55;;;;;;;6.35;83.71;100777.83;1690068;84;21220;-84
2022/11/04 03:08:13;;;;;;;21.77;14.30;;;;;;;6.38;83.60;100767.52;1690623;83;21084;-84
2022/11/04 03:10:43;;;;;;;20.65;12.70;;;;;;;6.42;83.64;100768.11;1690566;83;21841;-83
2022/11/04 03:13:16;;;;;;;24.95;13.38;;;;;;;6.47;83.47;100767.41;1690646;84;22495;-83
2022/11/04 03:15:50;;;;;;;23.45;13.45;;;;;;;6.48;83.51;100764.86;1690316;83;21081;-83
2022/11/04 03:18:34;;;;;;;26.82;14.73;;;;;;;6.52;83.51;100765.88;1691209;84;21054;-84
2022/11/04 03:21:04;;;;;;;25.80;13.90;;;;;;;6.57;83.52;100768.28;1692237;84;21062;-83
2022/11/04 03:23:31;;;;;;;20.75;13.00;;;;;;;6.59;83.40;100763.58;1665874;86;21903;-83
2022/11/04 03:26:24;;;;;;;21.02;13.30;;;;;;;6.65;83.53;100764.25;1665761;86;21046;-84
2022/11/04 03:29:33;;;;;;;23.42;13.85;;;;;;;6.67;83.36;100758.66;1669765;84;21596;-84
2022/11/04 03:32:26;;;;;;;23.12;14.25;;;;;;;6.71;83.24;100754.45;1694313;83;21138;-83
2022/11/04 03:34:53;;;;;;;20.20;13.95;;;;;;;6.70;83.11;100750.03;1694319;83;21044;-84
2022/11/04 03:37:19;;;;;;;26.70;14.00;;;;;;;6.66;82.88;100743.78;1694263;84;22564;-83
2022/11/04 03:39:46;;;;;;;19.55;13.32;;;;;;;6.58;82.75;100739.55;1694236;84;21032;-84
2022/11/04 03:42:19;;;;;;;24.05;12.93;;;;;;;6.58;82.93;100737.36;1694215;83;21028;-84
2022/11/04 03:44:56;;;;;;;24.57;13.00;;;;;;;6.60;83.02;100736.58;1694530;83;21048;-84
2022/11/04 03:47:25;;;;;;;24.75;13.22;;;;;;;6.63;83.10;100728.41;1694396;84;21644;-83
2022/11/04 03:49:56;;;;;;;23.18;11.93;;;;;;;6.64;83.06;100723.64;1694220;83;21762;-83
2022/11/04 03:52:23;;;;;;;21.70;12.65;;;;;;;6.67;83.16;100725.97;1694073;84;21135;-83
2022/11/04 03:54:50;;;;;;;20.23;13.05;;;;;;;6.73;83.31;100731.44;1694284;83;21214;-83
2022/11/04 03:57:35;;;;;;;23.55;13.50;;;;;;;6.78;83.29;100729.02;1694356;83;21193;-83
2022/11/04 04:00:09;;;;;;;20.85;14.43;;;;;;;6.81;83.23;100729.13;1694020;84;21275;-83
2022/11/04 04:03:19;;;;;;;24.23;15.45;;;;;;;6.81;83.00;100723.50;1694305;84;21203;-83
2022/11/04 04:05:56;;;;;;;23.70;14.43;;;;;;;6.77;82.83;100713.72;1678682;84;21056;-83
2022/11/04 04:08:37;;;;;;;20.60;14.33;;;;;;;6.74;82.77;100712.31;1694131;83;21083;-83
2022/11/04 04:11:24;;;;;;;30.48;15.23;;;;;;;6.74;82.89;100716.66;1694296;84;21587;-84
2022/11/04 04:17:08;;;;;;;26.10;15.78;;;;;;;6.76;82.96;100708.03;1595389;89;21721;-86
2022/11/04 04:19:35;;;;;;;24.30;15.35;;;;;;;6.76;82.92;100709.77;1594390;89;21082;-87
2022/11/04 04:22:10;;;;;;;22.30;14.43;;;;;;;6.76;82.91;100700.17;1602625;87;21202;-87
2022/11/04 04:27:32;;;;;;;24.45;14.53;;;;;;;6.81;83.01;100696.03;1608179;88;21086;-84
2022/11/04 04:30:08;;;;;;;24.05;13.93;;;;;;;6.84;83.01;100695.24;1608700;88;21759;-84
2022/11/04 04:32:48;;;;;;;27.90;13.85;;;;;;;6.85;82.92;100697.05;1608892;89;21102;-85
2022/11/04 04:46:08;;;;;;;21.93;13.43;;;;;;;7.04;83.01;100699.03;1594436;89;21154;-83
2022/11/04 04:48:36;;;;;;;20.27;12.82;;;;;;;7.06;82.98;100691.73;1594086;89;21275;-83
2022/11/04 04:51:03;;;;;;;19.87;13.22;;;;;;;7.08;83.00;100695.30;1594223;89;21082;-86
2022/11/04 04:53:30;;;;;;;27.00;13.95;;;;;;;7.12;83.02;100693.27;1670899;82;21110;-87
2022/11/04 04:55:57;;;;;;;21.82;14.38;;;;;;;7.16;83.04;100696.90;1692799;83;21836;-89
2022/11/04 04:58:24;;;;;;;22.35;13.53;;;;;;;7.18;83.00;100700.47;1663218;85;21082;-88
2022/11/04 05:00:51;;;;;;;25.55;14.40;;;;;;;7.18;82.88;100693.49;1680246;84;21052;-86
2022/11/04 05:03:17;;;;;;;23.80;15.50;;;;;;;7.23;82.85;100698.03;1679046;84;21699;-87
2022/11/04 05:05:48;;;;;;;23.15;14.78;;;;;;;7.24;82.82;100702.42;1679117;84;21035;-90
2022/11/04 05:08:15;;;;;;;29.37;15.63;;;;;;;7.25;82.79;100701.60;1692068;83;21810;-88
2022/11/04 05:10:42;;;;;;;27.73;15.43;;;;;;;7.26;82.83;100693.78;1700679;84;21077;-87
2022/11/04 05:13:28;;;;;;;24.92;15.30;;;;;;;7.27;82.75;100686.41;1705993;82;21093;-83
2022/11/04 05:16:10;;;;;;;27.75;15.13;;;;;;;7.28;82.76;100687.30;1691243;83;21140;-85
2022/11/04 05:18:37;;;;;;;32.38;13.88;;;;;;;7.31;82.86;100688.73;1690495;84;21085;-85
2022/11/04 05:21:13;;;;;;;21.33;13.83;;;;;;;7.33;82.75;100687.06;1691214;83;21819;-89
2022/11/04 05:23:39;;;;;;;24.98;13.58;;;;;;;7.35;82.86;100686.27;1668186;84;21109;-89
2022/11/04 05:26:06;;;;;;;22.58;13.90;;;;;;;7.39;82.83;100685.57;1696172;84;21110;-86
2022/11/04 05:28:33;;;;;;;22.22;13.85;;;;;;;7.41;82.78;100685.60;1695599;84;21055;-89
2022/11/04 05:31:05;;;;;;;23.98;13.95;;;;;;;7.34;82.82;100667.48;1695651;84;21074;-89
2022/11/04 05:33:32;;;;;;;23.55;13.65;;;;;;;7.47;82.86;100679.30;1695321;84;21735;-85
2022/11/04 05:36:12;;;;;;;24.27;13.80;;;;;;;7.46;82.65;100676.20;1679308;84;21051;-82
2022/11/04 05:38:39;;;;;;;20.23;13.60;;;;;;;7.46;82.67;100673.58;1691954;84;21138;-83
2022/11/04 05:41:06;;;;;;;20.37;13.35;;;;;;;7.48;82.75;100672.33;1689480;84;21174;-85
2022/11/04 05:43:34;;;;;;;21.40;12.93;;;;;;;7.49;82.70;100677.63;1695249;84;21096;-85
2022/11/04 05:46:01;;;;;;;22.27;12.18;;;;;;;7.50;82.78;100671.96;1695601;84;22596;-84
2022/11/04 05:48:27;;;;;;;22.58;13.15;;;;;;;7.52;82.77;100666.36;1695567;83;21066;-87
2022/11/04 05:51:00;;;;;;;26.02;13.68;;;;;;;7.56;82.82;100664.31;1697762;83;21126;-90
2022/11/04 05:53:29;;;;;;;27.55;13.53;;;;;;;7.57;82.74;100664.37;1705371;84;21055;-90
2022/11/04 05:55:58;;;;;;;20.82;12.90;;;;;;;7.59;82.75;100667.05;1708047;82;21071;-90
2022/11/04 05:58:24;;;;;;;19.95;12.93;;;;;;;7.60;82.74;100659.66;1707094;84;21784;-90
2022/11/04 06:00:51;;;;;;;40.75;13.78;;;;;;;7.60;82.64;100660.96;1707257;84;21027;-90
2022/11/04 06:03:18;;;;;;;23.73;13.45;;;;;;;7.58;82.54;100662.64;1702552;84;21084;-88
2022/11/04 06:05:45;;;;;;;24.85;13.18;;;;;;;7.57;82.63;100663.50;1702313;84;21087;-88
2022/11/04 06:08:12;;;;;;;25.02;12.30;;;;;;;7.57;82.66;100657.83;1702781;83;21592;-88
2022/11/04 06:10:39;;;;;;;18.77;11.85;;;;;;;7.57;82.67;100661.76;1697360;84;21752;-93
2022/11/04 06:13:05;;;;;;;22.07;13.28;;;;;;;7.58;82.78;100658.31;1706804;82;21078;-89
2022/11/04 06:15:32;;;;;;;22.55;13.30;;;;;;;7.61;82.70;100656.64;1688838;84;21097;-88
2022/11/04 06:17:59;;;;;;;25.65;13.43;;;;;;;7.64;82.70;100656.33;1693182;84;22041;-85
2022/11/04 06:20:26;;;;;;;24.87;12.78;;;;;;;7.67;82.83;100659.03;1700270;84;21066;-85
2022/11/04 06:22:53;;;;;;;20.10;12.10;;;;;;;7.69;82.75;100658.67;1691000;84;21807;-85
2022/11/04 06:25:20;;;;;;;18.17;12.05;;;;;;;7.71;82.72;100658.73;1692884;84;21567;-85
2022/11/04 06:27:47;;;;;;;20.97;12.60;;;;;;;7.73;82.67;100655.34;1693130;84;21584;-85
2022/11/04 06:30:14;;;;;;;23.00;12.58;;;;;;;7.72;82.54;100652.23;1693002;84;21040;-85
2022/11/04 06:32:41;;;;;;;17.50;11.50;;;;;;;7.73;82.52;100655.74;1693222;84;21282;-85
2022/11/04 06:35:08;;;;;;;21.62;12.00;;;;;;;7.73;82.53;100652.73;1692898;84;22416;-85
2022/11/04 06:37:36;;;;;;;23.80;12.98;;;;;;;7.76;82.50;100656.74;1692805;84;21142;-85
2022/11/04 06:40:04;;;;;;;30.10;13.98;;;;;;;7.76;82.50;100657.17;1692788;84;21047;-85
2022/11/04 06:42:30;;;;;;;27.67;16.55;;;;;;;7.79;82.46;100658.59;1704323;83;21099;-85
2022/11/04 06:44:57;;;;;;;27.75;16.70;;;;;;;7.80;82.51;100656.43;1703927;84;21088;-85
2022/11/04 06:47:24;;;;;;;26.80;16.25;;;;;;;7.82;82.47;100659.99;1697533;83;21106;-85
2022/11/04 06:49:51;;;;;;;27.93;14.83;;;;;;;7.83;82.45;100657.86;1694218;83;21572;-86
2022/11/04 06:52:18;;;;;;;24.23;14.93;;;;;;;7.85;82.47;100658.80;1693992;83;21103;-86
2022/11/04 06:54:46;;;;;;;25.05;15.55;;;;;;;7.84;82.34;100660.05;1694224;83;21140;-86
2022/11/04 06:57:13;;;;;;;24.45;14.68;;;;;;;7.80;82.34;100655.13;1694286;84;21151;-85
2022/11/04 06:59:40;;;;;;;24.47;15.48;;;;;;;7.78;82.29;100661.61;1694062;83;22621;-86
2022/11/04 07:02:11;;;;;;;20.52;15.20;;;;;;;7.76;82.30;100663.72;1694226;83;21104;-86
2022/11/04 07:04:38;;;;;;;28.77;15.70;;;;;;;7.75;82.43;100661.53;1694187;84;21084;-86
2022/11/04 07:07:05;;;;;;;23.77;15.23;;;;;;;7.82;82.53;100662.61;1694435;84;21065;-86
2022/11/04 07:09:32;;;;;;;25.82;15.48;;;;;;;7.87;82.59;100670.22;1694380;83;21084;-85
2022/11/04 07:11:59;;;;;;;25.30;14.35;;;;;;;7.92;82.61;100671.28;1694473;83;21784;-85
2022/11/04 07:14:26;;;;;;;27.60;14.25;;;;;;;7.99;82.64;100659.27;1694455;83;21167;-86
2022/11/04 07:16:53;;;;;;;24.70;14.25;;;;;;;8.06;82.70;100658.63;1704545;82;21134;-86
2022/11/04 07:19:20;;;;;;;26.20;15.32;;;;;;;8.09;82.56;100649.97;1708682;83;21081;-85
2022/11/04 07:21:47;;;;;;;25.15;15.53;;;;;;;8.14;82.61;100654.95;1707974;83;21089;-85
2022/11/04 07:24:13;;;;;;;29.63;16.87;;;;;;;8.20;82.60;100648.59;1700936;83;21806;-86
2022/11/04 07:26:41;;;;;;;35.75;26.65;;;;;;;8.23;82.55;100652.64;1700996;84;21615;-86
2022/11/04 07:29:09;;;;;;;39.42;30.20;;;;;;;8.24;82.40;100646.97;1700980;84;21054;-86
2022/11/04 07:31:40;;;;;;;45.08;34.95;;;;;;;8.23;82.35;100646.08;1700930;84;21654;-86
2022/11/04 07:34:07;;;;;;;50.58;36.00;;;;;;;8.25;82.43;100643.09;1700939;83;21113;-86
2022/11/04 07:36:33;;;;;;;49.53;35.63;;;;;;;8.28;82.32;100643.20;1700819;84;21767;-86
2022/11/04 07:39:00;;;;;;;45.58;34.30;;;;;;;8.29;82.28;100651.95;1700736;83;21054;-85
2022/11/04 07:41:28;;;;;;;50.10;32.60;;;;;;;8.29;82.26;100646.70;1700802;84;21575;-85
2022/11/04 07:43:55;;;;;;;45.63;32.08;;;;;;;8.32;82.33;100652.06;1700699;84;21158;-85
2022/11/04 07:46:21;;;;;;;42.95;31.70;;;;;;;8.35;82.28;100649.52;1700955;84;21077;-85
2022/11/04 07:48:48;;;;;;;39.08;30.10;;;;;;;8.41;82.36;100644.88;1700983;84;21781;-85
2022/11/04 07:51:17;;;;;;;40.55;30.25;;;;;;;8.45;82.33;100646.83;1700386;83;21078;-86
2022/11/04 07:53:44;;;;;;;46.40;29.85;;;;;;;8.49;82.40;100644.77;1684509;84;21111;-86
2022/11/04 07:56:11;;;;;;;50.12;30.62;;;;;;;8.53;82.38;100646.64;1700799;83;21135;-86
2022/11/04 07:58:44;;;;;;;41.55;29.92;;;;;;;8.56;82.27;100644.13;1700367;84;21070;-89
2022/11/04 08:01:15;;;;;;;39.35;28.17;;;;;;;8.59;82.28;100640.27;1701078;84;22431;-88
2022/11/04 08:03:42;;;;;;;42.48;26.80;;;;;;;8.65;82.35;100644.41;1700549;83;21591;-88
2022/11/04 08:06:11;;;;;;;43.17;27.48;;;;;;;8.71;82.35;100641.97;1700655;83;21070;-88
2022/11/04 08:08:37;;;;;;;45.70;29.30;;;;;;;8.78;82.33;100641.71;1700744;83;21058;-89
2022/11/04 08:11:07;;;;;;;51.30;30.92;;;;;;;8.85;82.37;100642.38;1700799;84;21078;-88
2022/11/04 08:13:35;;;;;;;47.15;31.27;;;;;;;8.92;82.33;100644.78;1700698;84;21747;-88
2022/11/04 08:16:09;;;;;;;54.33;33.73;;;;;;;9.03;82.43;100650.32;1700308;84;21054;-89
2022/11/04 08:18:36;;;;;;;52.88;34.27;;;;;;;9.11;82.36;100651.02;1684493;84;21062;-88
2022/11/04 08:21:04;;;;;;;44.50;31.00;;;;;;;9.19;82.42;100655.19;1700723;83;21168;-89
2022/11/04 08:23:31;;;;;;;40.80;29.48;;;;;;;9.27;82.48;100651.46;1667690;85;21081;-88
2022/11/04 08:26:05;;;;;;;38.10;26.60;;;;;;;9.36;82.56;100653.04;1679880;84;22929;-89
2022/11/04 08:28:32;;;;;;;35.17;22.05;;;;;;;9.44;82.60;100647.59;1676154;85;24976;-89
2022/11/04 08:31:06;;;;;;;29.52;18.20;;;;;;;9.52;82.56;100639.49;1679996;84;21034;-89
2022/11/04 08:33:34;;;;;;;21.85;14.75;;;;;;;9.59;82.54;100634.00;1673678;84;21227;-90
2022/11/04 08:36:08;;;;;;;29.32;15.60;;;;;;;9.65;82.54;100631.95;1680217;85;21110;-89
2022/11/04 08:38:37;;;;;;;20.43;14.47;;;;;;;9.69;82.43;100633.37;1679910;84;21770;-88
2022/11/04 08:41:05;;;;;;;19.87;13.70;;;;;;;9.76;82.47;100633.53;1680043;84;21094;-89
2022/11/04 08:43:33;;;;;;;21.10;12.47;;;;;;;9.81;82.43;100627.98;1680077;84;21074;-88
2022/11/04 08:46:00;;;;;;;19.48;11.18;;;;;;;9.83;82.32;100615.33;1679710;84;21073;-88
2022/11/04 08:48:27;;;;;;;23.25;12.63;;;;;;;9.88;82.33;100617.66;1678743;84;21128;-88
2022/11/04 08:50:57;;;;;;;24.07;11.50;;;;;;;9.96;82.37;100615.66;1679896;84;21770;-88
2022/11/04 08:53:25;;;;;;;21.60;11.33;;;;;;;10.02;82.30;100617.11;1679543;84;21074;-88
2022/11/04 08:55:52;;;;;;;20.15;9.95;;;;;;;10.07;82.27;100604.55;1679962;84;21105;-88
2022/11/04 08:58:20;;;;;;;18.67;11.38;;;;;;;10.16;82.24;100607.84;1679990;84;21186;-89
2022/11/04 09:00:47;;;;;;;18.00;10.20;;;;;;;10.23;82.37;100607.14;1680311;85;21094;-88
2022/11/04 09:03:14;;;;;;;28.25;10.40;;;;;;;10.37;82.31;100610.55;1680033;85;21828;-89
2022/11/04 09:05:46;;;;;;;17.42;10.50;;;;;;;10.45;82.10;100608.98;1680003;85;21057;-88
2022/11/04 09:08:11;;;;;;;16.70;10.70;;;;;;;10.52;81.99;100618.80;1678713;84;21089;-89
2022/11/04 09:10:46;;;;;;;20.12;11.10;;;;;;;10.56;81.77;100618.01;1679615;85;21614;-86
2022/11/04 09:13:14;;;;;;;20.48;11.53;;;;;;;10.56;81.49;100610.55;1679831;84;21300;-85
2022/11/04 09:15:42;;;;;;;23.10;13.75;;;;;;;10.55;81.37;100621.91;1683988;82;21760;-86
2022/11/04 09:18:08;;;;;;;23.90;14.25;;;;;;;10.57;81.39;100611.02;1697727;84;21315;-86
2022/11/04 09:20:40;;;;;;;22.17;14.28;;;;;;;10.64;81.51;100616.45;1697589;84;21165;-86
2022/11/04 09:23:07;;;;;;;20.00;11.18;;;;;;;10.67;81.31;100612.99;1681103;84;21284;-86
2022/11/04 09:25:34;;;;;;;20.70;10.18;;;;;;;10.69;81.04;100613.48;1697308;84;21043;-86
2022/11/04 09:28:03;;;;;;;21.05;10.55;;;;;;;10.67;80.73;100613.87;1697546;83;21059;-86
2022/11/04 09:30:30;;;;;;;20.40;9.63;;;;;;;10.67;80.61;100603.34;1697703;84;21079;-86
2022/11/04 09:32:57;;;;;;;16.85;10.03;;;;;;;10.71;80.48;100602.98;1697883;84;21106;-86
2022/11/04 09:35:26;;;;;;;19.62;9.68;;;;;;;10.79;80.48;100609.33;1697456;84;21694;-86
2022/11/04 09:37:53;;;;;;;14.20;9.38;;;;;;;10.86;80.37;100605.95;1697690;84;21099;-86
2022/11/04 09:40:23;;;;;;;20.88;10.08;;;;;;;10.98;80.46;100614.56;1697716;84;21768;-86
2022/11/04 09:43:04;;;;;;;13.95;8.73;;;;;;;11.14;80.42;100612.23;1681656;84;21569;-86
2022/11/04 09:45:31;;;;;;;15.93;8.90;;;;;;;11.23;80.01;100604.52;1695486;84;21051;-86
2022/11/04 09:48:02;;;;;;;16.93;9.05;;;;;;;11.33;79.93;100607.78;1681096;84;21423;-86
2022/11/04 09:50:33;;;;;;;16.57;10.35;;;;;;;11.45;79.89;100601.45;1697463;84;21203;-86
2022/11/04 09:53:28;;;;;;;18.50;9.58;;;;;;;11.57;79.56;100607.37;1697419;83;21807;-86
2022/11/04 09:56:00;;;;;;;22.07;10.18;;;;;;;11.61;79.20;100606.56;1682214;83;21528;-86
2022/11/04 09:58:31;;;;;;;21.40;10.68;;;;;;;11.67;79.06;100599.19;1708720;83;21085;-86
2022/11/04 10:01:06;;;;;;;17.70;10.28;;;;;;;11.78;78.94;100588.41;1707761;83;21209;-86
2022/11/04 10:03:56;;;;;;;16.93;10.90;;;;;;;11.84;78.69;100588.53;1708364;84;21015;-86
2022/11/04 10:07:13;;;;;;;17.48;10.35;;;;;;;11.91;78.56;100589.54;1708465;83;21699;-85
2022/11/04 10:10:01;;;;;;;16.25;9.50;;;;;;;11.93;78.19;100591.77;1708383;83;21078;-86
2022/11/04 10:12:53;;;;;;;20.00;10.30;;;;;;;11.80;77.71;100584.48;1706738;83;21086;-86
2022/11/04 10:15:37;;;;;;;17.20;10.28;;;;;;;11.67;77.65;100588.23;1708526;83;21066;-85
2022/11/04 10:18:18;;;;;;;18.42;10.72;;;;;;;11.55;77.45;100585.36;1691433;83;21062;-85
2022/11/04 10:21:25;;;;;;;25.30;12.90;;;;;;;11.47;77.46;100589.18;1708420;83;21789;-85
2022/11/04 10:24:30;;;;;;;14.07;9.53;;;;;;;11.50;77.64;100582.19;1708099;83;21042;-85
2022/11/04 10:27:02;;;;;;;13.50;9.43;;;;;;;11.55;77.50;100584.48;1708210;84;21066;-86
2022/11/04 10:29:43;;;;;;;16.60;8.98;;;;;;;11.58;77.37;100584.52;1708565;83;21765;-86
2022/11/04 10:32:39;;;;;;;15.08;9.55;;;;;;;11.56;77.23;100589.79;1708266;83;21050;-86
2022/11/04 10:35:20;;;;;;;15.45;9.68;;;;;;;11.54;77.15;100584.02;1707542;83;21796;-85
2022/11/04 10:37:50;;;;;;;13.95;9.30;;;;;;;11.49;77.00;100579.98;1708204;83;21840;-88
2022/11/04 10:40:28;;;;;;;16.42;9.83;;;;;;;11.44;76.94;100575.94;1692443;83;21050;-88
2022/11/04 10:42:57;;;;;;;16.07;10.08;;;;;;;11.43;77.10;100580.77;1708544;83;21164;-88
2022/11/04 10:45:32;;;;;;;18.27;9.58;;;;;;;11.42;77.08;100572.82;1708592;83;21050;-88
2022/11/04 10:48:06;;;;;;;15.30;9.93;;;;;;;11.37;76.97;100575.35;1708449;83;21820;-89
2022/11/04 10:50:48;;;;;;;;;;;;;;;11.33;77.02;100573.96;1710953;83;21069;-88
2022/11/04 10:53:18;;;;;;;16.25;10.48;;;;;;;11.28;76.83;100581.36;1708279;84;20611;-89
2022/11/04 10:55:54;;;;;;;24.95;14.23;;;;;;;11.23;76.90;100575.54;1708619;83;21122;-89
2022/11/04 10:58:27;;;;;;;18.23;10.53;;;;;;;11.16;76.79;100574.95;1708544;83;21115;-89
2022/11/04 11:00:54;;;;;;;15.35;9.93;;;;;;;11.12;76.83;100577.95;1708522;83;21744;-89
2022/11/04 11:03:27;;;;;;;16.45;10.48;;;;;;;11.07;76.76;100572.61;1708437;83;21074;-89
2022/11/04 11:06:25;;;;;;;16.00;9.78;;;;;;;11.04;76.91;100578.23;1708421;83;21128;-89
2022/11/04 11:08:54;;;;;;;18.55;10.93;;;;;;;11.06;77.07;100573.45;1692259;83;21670;-90
2022/11/04 11:11:46;;;;;;;15.80;9.93;;;;;;;11.14;77.12;100568.77;1708739;83;21102;-89
2022/11/04 11:14:33;;;;;;;18.65;10.43;;;;;;;11.21;77.15;100571.55;1708554;83;21830;-89
2022/11/04 11:17:27;;;;;;;23.42;10.18;;;;;;;11.34;77.10;100563.45;1707364;82;21091;-89
2022/11/04 11:20:22;;;;;;;18.50;9.48;;;;;;;11.44;76.88;100561.44;1682505;83;21137;-88
2022/11/04 11:22:53;;;;;;;16.93;9.20;;;;;;;11.53;76.77;100554.58;1708593;83;21070;-89
2022/11/04 11:25:27;;;;;;;20.25;9.98;;;;;;;11.60;76.46;100556.44;1698172;83;21039;-89
2022/11/04 11:28:04;;;;;;;20.90;10.15;;;;;;;11.64;76.37;100554.34;1700729;82;21648;-91
2022/11/04 11:30:51;;;;;;;14.33;10.20;;;;;;;11.68;76.17;100545.61;1719182;82;21681;-91
2022/11/04 11:33:27;;;;;;;18.30;10.03;;;;;;;11.72;76.04;100536.89;1701677;83;21060;-91
2022/11/04 11:36:03;;;;;;;16.40;10.03;;;;;;;11.76;76.02;100524.20;1698155;83;21416;-90
2022/11/04 11:38:32;;;;;;;14.60;9.78;;;;;;;11.78;75.77;100526.43;1695174;83;21062;-89
2022/11/04 11:41:09;;;;;;;14.45;9.58;;;;;;;11.75;75.65;100517.58;1705246;83;22509;-89
2022/11/04 11:43:40;;;;;;;18.00;10.50;;;;;;;11.76;75.66;100515.41;1715430;83;21081;-89
2022/11/04 11:46:06;;;;;;;18.75;10.48;;;;;;;11.75;75.51;100517.58;1688171;84;21061;-89
2022/11/04 11:48:47;;;;;;;17.77;10.30;;;;;;;11.73;75.46;100513.62;1725334;82;21170;-89
2022/11/04 11:51:14;;;;;;;15.98;10.70;;;;;;;11.72;75.36;100514.47;1698904;83;21018;-89
2022/11/04 11:53:44;;;;;;;17.02;12.63;;;;;;;11.79;75.56;100508.44;1725242;83;21750;-89
2022/11/04 11:56:31;;;;;;;16.40;12.40;;;;;;;11.87;75.48;100507.24;1722689;82;21665;-89
2022/11/04 11:59:06;;;;;;;18.50;11.20;;;;;;;11.97;75.57;100504.34;1698632;83;21085;-89
2022/11/04 12:01:41;;;;;;;15.58;10.08;;;;;;;12.06;75.49;100508.44;1725429;83;21049;-89
2022/11/04 12:04:12;;;;;;;19.48;9.70;;;;;;;12.14;75.53;100502.84;1724916;83;21101;-89
2022/11/04 12:07:13;;;;;;;18.17;10.10;;;;;;;12.20;75.46;100509.55;1725186;83;21791;-89
2022/11/04 12:09:48;;;;;;;15.18;10.05;;;;;;;12.20;75.20;100512.19;1725023;83;21049;-89
2022/11/04 12:12:29;;;;;;;14.95;10.15;;;;;;;12.24;75.29;100514.00;1695592;84;21042;-89
2022/11/04 12:15:26;;;;;;;16.02;9.55;;;;;;;12.34;75.23;100512.81;1696048;84;21591;-90
2022/11/04 12:18:28;;;;;;;18.00;9.95;;;;;;;12.38;74.96;100519.90;1667888;84;21076;-89